Eagle Harbor, New York
Current Conditions -  °F | °C
As of 11:54 AM on Wednesday 26 Nov 2014 (Local Time) from KROC Reporting Station
Overcast Overcast  
Wind Chill: 30°   Ceiling: 2700
Heat Index: 36°   Visibility: 10mi
Dew Point: 29°   Wind: 8mph
Humidity: 76%   Direction: 70°ENE
Pressure: 30.13"   Gusts: NA
Location:  43.2353°N, 78.214°W
Report Text: KROC 261654Z 07007KT 10SM FEW023 OVC027 02/M02 A3013 RMK AO2 SLP213 T00221017
Loading
Personal Weather Stations






























Interactive Weather Map New forecast layout! Learn more

10-Day Weather Forecast

Advertisements
Track Severe Weather on mobile